Time;durP1;ratioP1;P1;durP2;ratioP2;P2;SDS_P1;SDS_P2;PMS_P1;PMS_P2;Temp;Humidity;BMP_temperature;BMP_pressure;BME280_temperature;BME280_humidity;BME280_pressure;Samples;Min_cycle;Max_cycle;Signal;HPM_P1;HPM_P2
2021/10/05 00:01:31;;;;;;;3.60;1.40;;;;;;;;;;5055266;28;20220;-73
2021/10/05 00:03:58;;;;;;;2.80;1.17;;;;;;;;;;5056530;28;20293;-73
2021/10/05 00:06:26;;;;;;;3.83;1.10;;;;;;;;;;5056985;28;20237;-73
2021/10/05 00:08:53;;;;;;;3.23;1.20;;;;;;;;;;5054690;28;20213;-75
2021/10/05 00:11:19;;;;;;;3.77;1.30;;;;;;;;;;5055883;28;20248;-76
2021/10/05 00:13:46;;;;;;;4.37;1.40;;;;;;;;;;5055799;28;20705;-73
2021/10/05 00:16:12;;;;;;;3.60;0.90;;;;;;;;;;5054436;28;20217;-76
2021/10/05 00:18:39;;;;;;;4.10;1.70;;;;;;;;;;5055971;28;20287;-76
2021/10/05 00:21:05;;;;;;;3.53;1.37;;;;;;;;;;5055135;28;21272;-76
2021/10/05 00:23:33;;;;;;;1.80;1.20;;;;;;;;;;5056814;28;20248;-76
2021/10/05 00:25:59;;;;;;;4.60;1.60;;;;;;;;;;5055352;28;20283;-76
2021/10/05 00:28:26;;;;;;;4.43;1.60;;;;;;;;;;5054728;28;20263;-76
2021/10/05 00:30:52;;;;;;;4.20;1.63;;;;;;;;;;5052193;28;20275;-76
2021/10/05 00:33:18;;;;;;;5.70;1.90;;;;;;;;;;5055137;28;20213;-76
2021/10/05 00:35:45;;;;;;;5.03;1.50;;;;;;;;;;5052130;28;20234;-76
2021/10/05 00:38:11;;;;;;;5.43;2.03;;;;;;;;;;5053503;28;20232;-76
2021/10/05 00:40:39;;;;;;;2.37;1.47;;;;;;;;;;5054946;28;20649;-73
2021/10/05 00:43:08;;;;;;;6.10;1.50;;;;;;;;;;5052009;28;20212;-73
2021/10/05 00:45:35;;;;;;;4.47;1.80;;;;;;;;;;5054613;28;20252;-73
2021/10/05 00:48:01;;;;;;;4.00;1.77;;;;;;;;;;5053086;28;20233;-73
2021/10/05 00:50:28;;;;;;;3.17;1.23;;;;;;;;;;5053501;28;20292;-73
2021/10/05 00:52:54;;;;;;;4.67;1.73;;;;;;;;;;5053467;28;20267;-73
2021/10/05 00:55:20;;;;;;;1.70;1.20;;;;;;;;;;5055245;28;20295;-76
2021/10/05 00:57:48;;;;;;;4.10;1.63;;;;;;;;;;5053681;28;20281;-73
2021/10/05 01:00:16;;;;;;;6.17;1.50;;;;;;;;;;5054494;28;20734;-73
2021/10/05 01:02:43;;;;;;;5.47;1.40;;;;;;;;;;5054980;28;20225;-73
2021/10/05 01:05:09;;;;;;;3.00;1.70;;;;;;;;;;5050970;28;20845;-73
2021/10/05 01:07:36;;;;;;;5.30;1.40;;;;;;;;;;5054704;28;20267;-73
2021/10/05 01:10:04;;;;;;;3.27;1.50;;;;;;;;;;5052321;28;20210;-73
2021/10/05 01:12:30;;;;;;;4.70;1.30;;;;;;;;;;5054084;28;20380;-73
2021/10/05 01:14:58;;;;;;;3.57;1.43;;;;;;;;;;5052143;28;20671;-73
2021/10/05 01:17:24;;;;;;;3.57;1.37;;;;;;;;;;5052674;28;20238;-73
2021/10/05 01:19:51;;;;;;;2.53;0.90;;;;;;;;;;5054217;28;20287;-75
2021/10/05 01:22:19;;;;;;;3.90;1.60;;;;;;;;;;5053462;28;20275;-75
2021/10/05 01:24:45;;;;;;;5.57;1.60;;;;;;;;;;5056430;28;20622;-73
2021/10/05 01:27:12;;;;;;;3.03;1.47;;;;;;;;;;5055127;28;20272;-73
2021/10/05 01:29:39;;;;;;;5.07;1.50;;;;;;;;;;5056103;28;20660;-73
2021/10/05 01:32:06;;;;;;;4.30;1.20;;;;;;;;;;5052596;28;20214;-73
2021/10/05 01:34:33;;;;;;;2.10;1.20;;;;;;;;;;5055212;28;20222;-75
2021/10/05 01:37:00;;;;;;;6.03;1.37;;;;;;;;;;5052194;28;20280;-72
2021/10/05 01:39:29;;;;;;;3.27;1.43;;;;;;;;;;5058031;28;20262;-73
2021/10/05 01:41:57;;;;;;;4.63;1.60;;;;;;;;;;5057929;28;20220;-73
2021/10/05 01:44:24;;;;;;;4.17;1.50;;;;;;;;;;5055510;28;20216;-73
2021/10/05 01:46:51;;;;;;;2.73;1.37;;;;;;;;;;5058941;28;20291;-73
2021/10/05 01:49:19;;;;;;;4.20;1.33;;;;;;;;;;5057644;28;20352;-73
2021/10/05 01:51:46;;;;;;;3.40;1.33;;;;;;;;;;5056877;28;20695;-73
2021/10/05 01:54:13;;;;;;;1.70;1.17;;;;;;;;;;5056368;28;20652;-73
2021/10/05 01:56:41;;;;;;;3.03;1.20;;;;;;;;;;5057624;28;20259;-73
2021/10/05 01:59:07;;;;;;;2.03;1.43;;;;;;;;;;5059489;28;20222;-73
2021/10/05 02:01:34;;;;;;;4.73;1.60;;;;;;;;;;5056530;28;20223;-73
2021/10/05 02:04:00;;;;;;;4.03;1.50;;;;;;;;;;5057079;28;20220;-73
2021/10/05 02:06:27;;;;;;;3.63;1.57;;;;;;;;;;5058682;28;20241;-73
2021/10/05 02:08:53;;;;;;;4.53;1.40;;;;;;;;;;5057323;28;20602;-73
2021/10/05 02:11:20;;;;;;;3.17;1.43;;;;;;;;;;5057265;28;20285;-73
2021/10/05 02:13:48;;;;;;;6.03;1.50;;;;;;;;;;5057433;28;20222;-73
2021/10/05 02:16:14;;;;;;;2.90;1.43;;;;;;;;;;5057077;28;20291;-73
2021/10/05 02:18:46;;;;;;;5.57;1.20;;;;;;;;;;5058042;28;20237;-73
2021/10/05 02:21:12;;;;;;;2.83;1.30;;;;;;;;;;5056697;28;20438;-73
2021/10/05 02:26:19;;;;;;;5.13;1.60;;;;;;;;;;5057911;28;20236;-73
2021/10/05 02:28:45;;;;;;;2.23;1.30;;;;;;;;;;5058526;28;20224;-73
2021/10/05 02:31:13;;;;;;;5.70;1.63;;;;;;;;;;5059395;28;20255;-73
2021/10/05 02:33:39;;;;;;;4.13;1.10;;;;;;;;;;5056855;28;20218;-75
2021/10/05 02:36:06;;;;;;;5.17;1.77;;;;;;;;;;5056868;28;20230;-73
2021/10/05 02:38:32;;;;;;;2.67;1.57;;;;;;;;;;5058664;28;20315;-73
2021/10/05 02:40:58;;;;;;;4.67;1.33;;;;;;;;;;5055052;28;20545;-73
2021/10/05 02:43:25;;;;;;;3.53;1.37;;;;;;;;;;5055211;28;20638;-73
2021/10/05 02:45:51;;;;;;;4.43;1.43;;;;;;;;;;5057369;28;20217;-73
2021/10/05 02:48:19;;;;;;;5.10;1.30;;;;;;;;;;5057291;28;20212;-73
2021/10/05 02:50:45;;;;;;;4.50;1.23;;;;;;;;;;5056532;28;20884;-73
2021/10/05 02:53:12;;;;;;;3.87;1.37;;;;;;;;;;5058347;28;20269;-73
2021/10/05 02:55:40;;;;;;;3.67;1.33;;;;;;;;;;5056456;28;20266;-72
2021/10/05 02:58:07;;;;;;;3.57;1.53;;;;;;;;;;5055556;28;20228;-73
2021/10/05 03:00:34;;;;;;;9.00;1.77;;;;;;;;;;5056322;28;20225;-73
2021/10/05 03:03:00;;;;;;;2.10;1.20;;;;;;;;;;5056555;28;20261;-73
2021/10/05 03:05:28;;;;;;;3.07;1.37;;;;;;;;;;5055169;28;20240;-73
2021/10/05 03:07:54;;;;;;;5.73;1.60;;;;;;;;;;5057890;28;20290;-73
2021/10/05 03:10:21;;;;;;;3.50;1.47;;;;;;;;;;5056270;28;20221;-73
2021/10/05 03:12:47;;;;;;;2.27;1.20;;;;;;;;;;5054358;28;20240;-73
2021/10/05 03:15:14;;;;;;;3.47;1.33;;;;;;;;;;5056249;28;20228;-73
2021/10/05 03:17:41;;;;;;;5.97;1.50;;;;;;;;;;5055883;28;20243;-73
2021/10/05 03:20:09;;;;;;;3.67;1.77;;;;;;;;;;5057293;28;20703;-73
2021/10/05 03:22:37;;;;;;;3.20;1.50;;;;;;;;;;5055782;28;20231;-73
2021/10/05 03:25:05;;;;;;;2.97;1.87;;;;;;;;;;5054908;28;20590;-73
2021/10/05 03:27:35;;;;;;;4.23;1.47;;;;;;;;;;5057955;28;20225;-73
2021/10/05 03:30:01;;;;;;;3.20;1.50;;;;;;;;;;5056157;28;20220;-73
2021/10/05 03:32:28;;;;;;;4.33;1.50;;;;;;;;;;5058064;28;20734;-73
2021/10/05 03:34:54;;;;;;;5.80;1.57;;;;;;;;;;5053802;28;20239;-73
2021/10/05 03:37:20;;;;;;;5.50;1.50;;;;;;;;;;5054394;28;20213;-73
2021/10/05 03:39:48;;;;;;;5.80;1.50;;;;;;;;;;5054393;28;20217;-73
2021/10/05 03:42:15;;;;;;;3.40;1.60;;;;;;;;;;5055392;28;20275;-73
2021/10/05 03:44:41;;;;;;;5.27;1.60;;;;;;;;;;5056225;28;20274;-73
2021/10/05 03:47:08;;;;;;;2.10;1.60;;;;;;;;;;5055771;28;20224;-73
2021/10/05 03:49:34;;;;;;;2.33;1.57;;;;;;;;;;5056576;28;20213;-73
2021/10/05 03:52:01;;;;;;;3.90;1.50;;;;;;;;;;5055236;28;20209;-73
2021/10/05 03:54:27;;;;;;;3.27;1.53;;;;;;;;;;5055674;28;20223;-73
2021/10/05 03:56:56;;;;;;;3.47;1.60;;;;;;;;;;5056934;28;20212;-73
2021/10/05 03:59:22;;;;;;;3.97;1.87;;;;;;;;;;5055686;28;20233;-73
2021/10/05 04:01:48;;;;;;;2.53;1.37;;;;;;;;;;5054531;28;20226;-73
2021/10/05 04:04:15;;;;;;;3.30;1.50;;;;;;;;;;5054781;28;20296;-73
2021/10/05 04:06:43;;;;;;;5.87;1.93;;;;;;;;;;5054426;28;20241;-73
2021/10/05 04:09:09;;;;;;;4.37;1.80;;;;;;;;;;5055039;28;20212;-73
2021/10/05 04:11:36;;;;;;;3.70;1.73;;;;;;;;;;5054008;28;20299;-73
2021/10/05 04:14:04;;;;;;;4.97;1.80;;;;;;;;;;5054756;28;20224;-73
2021/10/05 04:16:30;;;;;;;3.43;2.13;;;;;;;;;;5053266;28;20217;-73
2021/10/05 04:18:57;;;;;;;6.17;2.37;;;;;;;;;;5056366;28;20643;-73
2021/10/05 04:21:23;;;;;;;5.93;2.20;;;;;;;;;;5053892;28;20231;-73
2021/10/05 04:23:49;;;;;;;7.10;2.60;;;;;;;;;;5055671;28;20220;-73
2021/10/05 04:26:16;;;;;;;3.90;2.47;;;;;;;;;;5054519;28;20276;-73
2021/10/05 04:28:42;;;;;;;3.07;2.07;;;;;;;;;;5053576;28;20656;-73
2021/10/05 04:31:10;;;;;;;7.82;2.70;;;;;;;;;;5054813;28;20933;-74
2021/10/05 04:33:37;;;;;;;4.83;2.90;;;;;;;;;;5054305;28;20220;-76
2021/10/05 04:36:04;;;;;;;5.10;2.93;;;;;;;;;;5053404;28;20228;-74
2021/10/05 04:38:30;;;;;;;3.40;2.40;;;;;;;;;;5056260;28;20765;-75
2021/10/05 04:40:56;;;;;;;4.90;2.47;;;;;;;;;;5053383;28;20212;-74
2021/10/05 04:43:23;;;;;;;5.27;2.70;;;;;;;;;;5052253;28;20230;-75
2021/10/05 04:45:50;;;;;;;4.43;2.60;;;;;;;;;;5056256;28;20687;-75
2021/10/05 04:48:18;;;;;;;4.23;2.73;;;;;;;;;;5054844;28;20282;-74
2021/10/05 04:50:44;;;;;;;3.73;2.63;;;;;;;;;;5055908;28;20228;-75
2021/10/05 04:53:12;;;;;;;5.67;2.90;;;;;;;;;;5054981;28;20216;-75
2021/10/05 04:55:41;;;;;;;6.47;2.63;;;;;;;;;;5055235;28;20865;-75
2021/10/05 04:58:07;;;;;;;2.70;2.50;;;;;;;;;;5054694;28;20228;-74
2021/10/05 05:00:33;;;;;;;4.57;3.47;;;;;;;;;;5055441;28;20200;-75
2021/10/05 05:03:00;;;;;;;4.17;3.10;;;;;;;;;;5055774;28;20611;-75
2021/10/05 05:05:27;;;;;;;4.47;3.20;;;;;;;;;;5055625;28;20227;-74
2021/10/05 05:07:57;;;;;;;4.13;3.20;;;;;;;;;;5053349;28;20766;-75
2021/10/05 05:10:24;;;;;;;6.53;4.00;;;;;;;;;;5055635;28;20209;-75
2021/10/05 05:12:50;;;;;;;4.50;3.03;;;;;;;;;;5055162;28;20717;-75
2021/10/05 05:15:17;;;;;;;5.27;3.37;;;;;;;;;;5058960;28;20531;-76
2021/10/05 05:17:43;;;;;;;5.00;3.53;;;;;;;;;;5058690;28;20250;-76
2021/10/05 05:20:10;;;;;;;4.70;3.30;;;;;;;;;;5056920;28;20220;-76
2021/10/05 05:22:38;;;;;;;20.97;4.20;;;;;;;;;;5059038;28;20718;-76
2021/10/05 05:25:06;;;;;;;7.80;4.07;;;;;;;;;;5060464;28;20213;-76
2021/10/05 05:27:32;;;;;;;4.37;3.73;;;;;;;;;;5060081;28;20208;-76
2021/10/05 05:29:59;;;;;;;9.33;4.10;;;;;;;;;;5057281;28;20205;-76
2021/10/05 05:32:26;;;;;;;4.13;3.53;;;;;;;;;;5059667;28;20254;-76
2021/10/05 05:34:52;;;;;;;5.30;3.90;;;;;;;;;;5057533;28;20277;-76
2021/10/05 05:37:18;;;;;;;9.37;3.63;;;;;;;;;;5055453;28;20220;-76
2021/10/05 05:39:46;;;;;;;7.13;3.93;;;;;;;;;;5056319;28;20289;-75
2021/10/05 05:42:13;;;;;;;5.07;4.07;;;;;;;;;;5058841;28;20212;-75
2021/10/05 05:44:40;;;;;;;5.67;4.37;;;;;;;;;;5058622;28;20212;-76
2021/10/05 05:47:07;;;;;;;7.03;3.90;;;;;;;;;;5056657;28;20262;-76
2021/10/05 05:49:34;;;;;;;6.83;3.90;;;;;;;;;;5057975;28;20257;-76
2021/10/05 05:52:00;;;;;;;5.77;3.77;;;;;;;;;;5057058;28;20263;-76
2021/10/05 05:54:27;;;;;;;4.77;3.63;;;;;;;;;;5057528;28;20248;-76
2021/10/05 05:56:54;;;;;;;4.73;4.17;;;;;;;;;;5059401;28;20234;-75
2021/10/05 05:59:21;;;;;;;6.17;3.97;;;;;;;;;;5060279;28;20299;-75
2021/10/05 06:01:47;;;;;;;6.20;3.97;;;;;;;;;;5058840;28;20258;-75
2021/10/05 06:04:14;;;;;;;7.13;4.50;;;;;;;;;;5057479;28;20216;-76
2021/10/05 06:06:40;;;;;;;6.53;3.90;;;;;;;;;;5057047;28;20690;-75
2021/10/05 06:09:07;;;;;;;4.27;3.73;;;;;;;;;;5057017;28;20261;-76
2021/10/05 06:11:35;;;;;;;6.07;4.47;;;;;;;;;;5047786;28;20240;-76
2021/10/05 06:14:03;;;;;;;7.23;4.27;;;;;;;;;;5038167;28;20222;-76
2021/10/05 06:16:30;;;;;;;11.40;4.90;;;;;;;;;;5034991;28;20267;-75
2021/10/05 06:18:56;;;;;;;5.10;3.90;;;;;;;;;;5035684;28;20245;-75
2021/10/05 06:21:23;;;;;;;6.27;3.93;;;;;;;;;;5034693;28;20284;-75
2021/10/05 06:23:51;;;;;;;11.17;4.53;;;;;;;;;;5035029;28;20217;-75
2021/10/05 06:26:18;;;;;;;11.67;4.43;;;;;;;;;;5036028;28;20218;-75
2021/10/05 06:28:44;;;;;;;6.43;4.70;;;;;;;;;;5036075;28;20222;-75
2021/10/05 06:31:12;;;;;;;11.53;4.47;;;;;;;;;;5036190;28;20268;-76
2021/10/05 06:33:38;;;;;;;8.90;4.80;;;;;;;;;;5037110;28;20218;-76
2021/10/05 06:36:05;;;;;;;5.50;4.60;;;;;;;;;;5034600;28;20230;-76
2021/10/05 06:38:31;;;;;;;14.87;4.77;;;;;;;;;;5037363;28;20234;-76
2021/10/05 06:40:58;;;;;;;10.27;4.67;;;;;;;;;;5036071;28;20206;-76
2021/10/05 06:43:25;;;;;;;8.07;5.23;;;;;;;;;;5032664;28;20216;-76
2021/10/05 06:45:51;;;;;;;6.23;4.63;;;;;;;;;;5035080;28;20270;-76
2021/10/05 06:48:19;;;;;;;9.97;4.70;;;;;;;;;;5033849;28;20644;-75
2021/10/05 06:50:45;;;;;;;6.77;5.17;;;;;;;;;;5035204;28;20273;-75
2021/10/05 06:53:15;;;;;;;6.47;4.70;;;;;;;;;;5033416;28;20221;-76
2021/10/05 06:55:43;;;;;;;10.63;5.23;;;;;;;;;;5034271;28;20210;-75
2021/10/05 06:58:10;;;;;;;5.77;4.37;;;;;;;;;;5035877;28;20257;-76
2021/10/05 07:00:37;;;;;;;15.47;4.90;;;;;;;;;;5033343;28;20575;-76
2021/10/05 07:03:03;;;;;;;6.90;4.33;;;;;;;;;;5033068;28;21174;-76
2021/10/05 07:05:31;;;;;;;4.73;4.33;;;;;;;;;;5032198;28;20239;-76
2021/10/05 07:07:57;;;;;;;6.03;5.10;;;;;;;;;;5034559;28;20211;-75
2021/10/05 07:10:24;;;;;;;5.83;4.27;;;;;;;;;;5033319;28;20253;-77
2021/10/05 07:12:52;;;;;;;24.00;6.20;;;;;;;;;;5053147;28;20696;-77
2021/10/05 07:15:18;;;;;;;4.90;3.97;;;;;;;;;;5050309;28;20214;-75
2021/10/05 07:17:45;;;;;;;5.50;4.13;;;;;;;;;;5053090;28;20213;-75
2021/10/05 07:20:12;;;;;;;11.43;4.97;;;;;;;;;;5053547;28;20303;-77
2021/10/05 07:22:40;;;;;;;7.57;5.03;;;;;;;;;;5053120;28;20205;-76
2021/10/05 07:25:06;;;;;;;6.07;4.90;;;;;;;;;;5054039;28;20218;-75
2021/10/05 07:27:33;;;;;;;5.93;4.47;;;;;;;;;;5054948;28;20210;-75
2021/10/05 07:30:01;;;;;;;9.07;4.77;;;;;;;;;;5052908;28;20283;-74
2021/10/05 07:32:29;;;;;;;5.07;4.37;;;;;;;;;;5054593;28;20306;-74
2021/10/05 07:34:55;;;;;;;10.97;5.00;;;;;;;;;;5051906;28;20235;-77
2021/10/05 07:37:22;;;;;;;6.43;4.80;;;;;;;;;;5054379;28;20244;-74
2021/10/05 07:39:50;;;;;;;5.27;4.17;;;;;;;;;;5054500;28;20238;-75
2021/10/05 07:42:16;;;;;;;6.67;4.43;;;;;;;;;;5054052;28;20637;-76
2021/10/05 07:44:43;;;;;;;8.00;4.50;;;;;;;;;;5052624;28;20213;-76
2021/10/05 07:47:09;;;;;;;9.43;4.63;;;;;;;;;;5053351;28;20210;-76
2021/10/05 07:49:36;;;;;;;7.07;4.00;;;;;;;;;;5053270;28;20218;-75
2021/10/05 07:52:03;;;;;;;4.83;4.10;;;;;;;;;;5053989;28;20218;-76
2021/10/05 07:54:30;;;;;;;4.33;3.63;;;;;;;;;;5051598;28;20230;-76
2021/10/05 07:56:58;;;;;;;5.87;3.70;;;;;;;;;;5052124;28;20633;-76
2021/10/05 07:59:24;;;;;;;5.27;3.87;;;;;;;;;;5053615;28;20771;-74
2021/10/05 08:01:51;;;;;;;7.03;3.30;;;;;;;;;;5050773;28;20264;-76
2021/10/05 08:04:18;;;;;;;4.20;3.03;;;;;;;;;;5050431;28;21024;-76
2021/10/05 08:06:45;;;;;;;4.07;3.23;;;;;;;;;;5052377;28;20283;-76
2021/10/05 08:09:14;;;;;;;6.73;3.40;;;;;;;;;;5052736;28;20213;-76
2021/10/05 08:11:40;;;;;;;4.33;3.10;;;;;;;;;;5052915;28;20242;-76
2021/10/05 08:14:08;;;;;;;7.03;3.00;;;;;;;;;;5051490;28;20219;-77
2021/10/05 08:16:35;;;;;;;4.03;2.67;;;;;;;;;;5051909;28;20248;-76
2021/10/05 08:19:04;;;;;;;3.83;2.57;;;;;;;;;;5050896;28;20222;-76
2021/10/05 08:21:31;;;;;;;4.07;3.07;;;;;;;;;;5049766;28;20299;-76
2021/10/05 08:23:57;;;;;;;6.10;3.60;;;;;;;;;;5054018;28;20218;-76
2021/10/05 08:26:24;;;;;;;4.47;3.10;;;;;;;;;;5055160;28;20268;-75
2021/10/05 08:28:51;;;;;;;12.53;3.00;;;;;;;;;;5052198;28;20222;-77
2021/10/05 08:31:18;;;;;;;4.73;3.20;;;;;;;;;;5052872;28;20237;-77
2021/10/05 08:33:45;;;;;;;8.63;3.40;;;;;;;;;;5053436;28;20896;-74
2021/10/05 08:36:12;;;;;;;7.53;2.60;;;;;;;;;;5050868;28;20222;-76
2021/10/05 08:38:40;;;;;;;3.97;2.73;;;;;;;;;;5055055;28;20211;-77
2021/10/05 08:41:07;;;;;;;6.40;3.17;;;;;;;;;;5053083;28;20218;-77
2021/10/05 08:43:34;;;;;;;3.30;2.60;;;;;;;;;;5052916;28;20983;-76
2021/10/05 08:46:02;;;;;;;7.77;3.13;;;;;;;;;;5051762;28;20700;-75
2021/10/05 08:48:31;;;;;;;3.13;2.70;;;;;;;;;;5050081;28;20222;-77
2021/10/05 08:50:58;;;;;;;4.63;3.40;;;;;;;;;;5051413;28;20224;-76
2021/10/05 08:53:26;;;;;;;3.43;2.73;;;;;;;;;;5051899;28;20230;-77
2021/10/05 08:55:53;;;;;;;7.77;2.70;;;;;;;;;;5054745;28;20234;-77
2021/10/05 08:58:19;;;;;;;3.87;3.00;;;;;;;;;;5050709;28;20361;-77
2021/10/05 09:00:46;;;;;;;2.80;2.47;;;;;;;;;;5050678;28;20233;-77
2021/10/05 09:03:21;;;;;;;5.87;2.80;;;;;;;;;;5049818;28;20214;-77
2021/10/05 09:05:49;;;;;;;4.17;2.77;;;;;;;;;;5052935;28;20241;-75
2021/10/05 09:08:22;;;;;;;3.07;2.47;;;;;;;;;;5052746;28;20219;-75
2021/10/05 09:10:52;;;;;;;5.13;2.47;;;;;;;;;;5053052;28;20301;-75
2021/10/05 09:13:30;;;;;;;4.00;2.80;;;;;;;;;;5052914;28;20213;-75
2021/10/05 09:15:56;;;;;;;2.50;2.27;;;;;;;;;;5051882;28;20261;-74
2021/10/05 09:18:23;;;;;;;4.20;2.60;;;;;;;;;;5050588;28;20286;-77
2021/10/05 09:20:50;;;;;;;4.33;3.30;;;;;;;;;;5051662;28;20241;-75
2021/10/05 09:23:17;;;;;;;4.27;2.97;;;;;;;;;;5052260;28;20278;-75
2021/10/05 09:25:46;;;;;;;3.83;2.73;;;;;;;;;;5051842;28;20289;-75
2021/10/05 09:28:16;;;;;;;4.37;2.87;;;;;;;;;;5051991;28;20221;-73
2021/10/05 09:30:43;;;;;;;5.70;3.17;;;;;;;;;;5052208;28;20561;-73
2021/10/05 09:33:10;;;;;;;11.20;3.30;;;;;;;;;;5050460;28;20218;-73
2021/10/05 09:35:44;;;;;;;6.23;3.20;;;;;;;;;;5052185;28;20612;-73
2021/10/05 09:38:13;;;;;;;3.20;2.50;;;;;;;;;;5051586;28;20281;-73
2021/10/05 09:40:41;;;;;;;4.40;2.40;;;;;;;;;;5051420;28;20234;-73
2021/10/05 09:43:21;;;;;;;9.00;2.43;;;;;;;;;;5051473;28;20546;-73
2021/10/05 09:45:48;;;;;;;7.40;2.03;;;;;;;;;;5051401;28;20267;-74
2021/10/05 09:48:15;;;;;;;11.10;1.93;;;;;;;;;;5051908;28;20644;-73
2021/10/05 09:50:41;;;;;;;4.93;2.23;;;;;;;;;;5051653;28;20680;-73
2021/10/05 09:53:09;;;;;;;4.17;1.93;;;;;;;;;;5050847;28;20269;-74
2021/10/05 09:55:38;;;;;;;4.87;1.93;;;;;;;;;;5050668;28;20828;-73
2021/10/05 09:58:06;;;;;;;3.30;2.00;;;;;;;;;;5052506;28;20262;-74
2021/10/05 10:00:34;;;;;;;2.33;1.73;;;;;;;;;;5053615;28;20241;-73
2021/10/05 10:03:00;;;;;;;4.50;1.70;;;;;;;;;;5056529;28;20546;-74
2021/10/05 10:05:28;;;;;;;6.57;1.63;;;;;;;;;;5054803;28;20241;-74
2021/10/05 10:07:56;;;;;;;4.73;1.80;;;;;;;;;;5053906;28;20964;-74
2021/10/05 10:10:25;;;;;;;4.97;2.03;;;;;;;;;;5053969;28;20696;-75
2021/10/05 10:12:55;;;;;;;9.60;1.83;;;;;;;;;;5055877;28;20243;-73
2021/10/05 10:15:25;;;;;;;3.07;1.70;;;;;;;;;;5053323;28;20720;-74
2021/10/05 10:17:52;;;;;;;10.00;2.63;;;;;;;;;;5055394;28;20264;-73
2021/10/05 10:20:23;;;;;;;4.17;1.53;;;;;;;;;;5051677;28;20819;-73
2021/10/05 10:22:50;;;;;;;3.50;2.00;;;;;;;;;;5054660;28;20658;-74
2021/10/05 10:25:22;;;;;;;3.80;1.67;;;;;;;;;;5055933;28;20610;-73
2021/10/05 10:27:48;;;;;;;2.87;1.30;;;;;;;;;;5055627;28;20639;-75
2021/10/05 10:30:17;;;;;;;6.43;1.77;;;;;;;;;;5052305;28;20586;-75
2021/10/05 10:32:46;;;;;;;6.70;1.67;;;;;;;;;;5054936;28;20240;-75
2021/10/05 10:35:13;;;;;;;3.37;1.70;;;;;;;;;;5054537;28;20283;-74
2021/10/05 10:37:45;;;;;;;4.10;1.97;;;;;;;;;;5054397;28;20216;-75
2021/10/05 10:40:13;;;;;;;4.00;1.37;;;;;;;;;;5055206;28;21181;-75
2021/10/05 10:42:40;;;;;;;2.13;1.00;;;;;;;;;;5054638;28;20244;-75
2021/10/05 10:45:17;;;;;;;9.80;2.10;;;;;;;;;;5054044;28;20218;-75
2021/10/05 10:47:45;;;;;;;3.43;1.10;;;;;;;;;;5054033;28;20550;-75
2021/10/05 10:50:14;;;;;;;3.40;1.70;;;;;;;;;;5055667;28;20229;-75
2021/10/05 10:52:43;;;;;;;5.50;1.77;;;;;;;;;;5055088;28;20717;-75
2021/10/05 10:55:11;;;;;;;11.93;1.80;;;;;;;;;;5054616;28;20720;-74
2021/10/05 10:57:40;;;;;;;2.10;1.10;;;;;;;;;;5054472;28;20212;-72
2021/10/05 11:00:17;;;;;;;2.60;1.20;;;;;;;;;;5054882;28;20840;-72
2021/10/05 11:02:45;;;;;;;4.00;1.70;;;;;;;;;;5055733;28;20221;-75
2021/10/05 11:05:12;;;;;;;5.13;1.60;;;;;;;;;;5053029;28;21219;-75
2021/10/05 11:07:39;;;;;;;68.00;4.70;;;;;;;;;;5054673;28;20233;-75
2021/10/05 11:10:07;;;;;;;2.83;1.30;;;;;;;;;;5052084;28;20241;-75
2021/10/05 11:12:36;;;;;;;9.93;1.97;;;;;;;;;;5052892;28;20300;-74
2021/10/05 11:15:03;;;;;;;7.97;1.33;;;;;;;;;;5054991;28;20206;-75
2021/10/05 11:17:35;;;;;;;8.60;1.70;;;;;;;;;;5053745;28;20268;-76
2021/10/05 11:20:07;;;;;;;7.27;1.40;;;;;;;;;;5053766;28;20234;-75
2021/10/05 11:22:34;;;;;;;3.57;1.10;;;;;;;;;;5051214;28;20237;-74
2021/10/05 11:25:01;;;;;;;3.73;1.40;;;;;;;;;;5054403;28;20213;-75
2021/10/05 11:27:29;;;;;;;4.20;1.30;;;;;;;;;;5053687;28;20220;-74
2021/10/05 11:30:01;;;;;;;6.80;1.60;;;;;;;;;;5054099;28;20207;-74
2021/10/05 11:32:30;;;;;;;7.27;1.50;;;;;;;;;;5054520;28;20280;-74
2021/10/05 11:35:03;;;;;;;7.00;1.23;;;;;;;;;;5052564;28;20245;-75
2021/10/05 11:37:30;;;;;;;2.10;1.40;;;;;;;;;;5053817;28;20211;-74
2021/10/05 11:39:57;;;;;;;5.23;1.30;;;;;;;;;;5052584;28;20217;-75
2021/10/05 11:42:27;;;;;;;3.40;1.40;;;;;;;;;;5053703;28;20220;-75
2021/10/05 11:44:59;;;;;;;4.83;1.40;;;;;;;;;;5053650;28;20244;-75
2021/10/05 11:47:28;;;;;;;5.63;1.77;;;;;;;;;;5053364;28;20212;-74
2021/10/05 11:49:57;;;;;;;3.50;1.30;;;;;;;;;;5055041;28;21348;-74
2021/10/05 11:52:28;;;;;;;5.50;1.30;;;;;;;;;;5053476;28;20216;-74
2021/10/05 11:54:55;;;;;;;7.23;1.20;;;;;;;;;;5053558;28;20241;-74
2021/10/05 11:57:24;;;;;;;5.47;1.80;;;;;;;;;;5052825;28;20221;-74
2021/10/05 11:59:51;;;;;;;2.23;1.10;;;;;;;;;;5053682;28;20770;-75
2021/10/05 12:02:19;;;;;;;5.70;1.93;;;;;;;;;;5053081;28;20217;-75
2021/10/05 12:04:47;;;;;;;3.60;1.70;;;;;;;;;;5055728;28;21597;-74
2021/10/05 12:07:16;;;;;;;8.97;1.93;;;;;;;;;;5052554;28;20220;-74
2021/10/05 12:09:47;;;;;;;3.77;1.57;;;;;;;;;;5053245;28;20656;-74
2021/10/05 12:12:15;;;;;;;6.60;1.70;;;;;;;;;;5051737;28;20694;-74
2021/10/05 12:14:44;;;;;;;2.73;1.60;;;;;;;;;;5053858;28;20729;-74
2021/10/05 12:17:13;;;;;;;6.10;1.47;;;;;;;;;;5053549;28;20217;-74
2021/10/05 12:19:44;;;;;;;4.93;1.70;;;;;;;;;;5053691;28;20241;-74
2021/10/05 12:22:11;;;;;;;4.67;1.67;;;;;;;;;;5051192;28;20222;-74
2021/10/05 12:24:43;;;;;;;4.03;2.00;;;;;;;;;;5051198;28;20710;-74
2021/10/05 12:27:17;;;;;;;3.23;1.77;;;;;;;;;;5050533;28;20206;-74
2021/10/05 12:29:53;;;;;;;7.53;1.40;;;;;;;;;;5054383;28;20825;-74
2021/10/05 12:32:20;;;;;;;35.63;4.20;;;;;;;;;;5053883;28;20220;-74
2021/10/05 12:34:51;;;;;;;7.53;1.70;;;;;;;;;;5050688;28;20237;-74
2021/10/05 12:37:18;;;;;;;7.87;2.10;;;;;;;;;;5052828;28;20271;-74
2021/10/05 12:39:54;;;;;;;5.07;1.60;;;;;;;;;;5052622;28;20317;-74
2021/10/05 12:42:22;;;;;;;17.17;2.40;;;;;;;;;;5052216;28;20295;-74
2021/10/05 12:44:55;;;;;;;7.73;1.80;;;;;;;;;;5052148;28;20270;-71
2021/10/05 12:47:22;;;;;;;5.57;1.97;;;;;;;;;;5050401;28;20302;-71
2021/10/05 12:49:52;;;;;;;4.17;1.83;;;;;;;;;;5051042;28;20226;-74
2021/10/05 12:52:19;;;;;;;4.80;1.87;;;;;;;;;;5051111;28;20240;-74
2021/10/05 12:54:45;;;;;;;12.37;1.87;;;;;;;;;;5051378;28;20271;-74
2021/10/05 12:57:13;;;;;;;6.23;2.17;;;;;;;;;;5052042;28;20217;-75
2021/10/05 12:59:51;;;;;;;11.43;1.77;;;;;;;;;;5053403;28;20351;-74
2021/10/05 13:02:18;;;;;;;5.03;1.90;;;;;;;;;;5051393;28;20257;-75
2021/10/05 13:04:44;;;;;;;5.40;1.50;;;;;;;;;;5053453;28;20233;-74
2021/10/05 13:07:11;;;;;;;5.80;1.80;;;;;;;;;;5053422;28;20226;-74
2021/10/05 13:09:37;;;;;;;8.90;1.90;;;;;;;;;;5051869;28;20218;-74
2021/10/05 13:12:04;;;;;;;4.63;2.07;;;;;;;;;;5053299;28;20241;-74
2021/10/05 13:14:30;;;;;;;7.23;1.97;;;;;;;;;;5051132;28;20357;-74
2021/10/05 13:16:58;;;;;;;2.57;1.50;;;;;;;;;;5053756;28;20220;-74
2021/10/05 13:19:25;;;;;;;4.67;1.57;;;;;;;;;;5051926;28;20232;-74
2021/10/05 13:21:51;;;;;;;4.97;1.90;;;;;;;;;;5053776;28;20503;-74
2021/10/05 13:24:17;;;;;;;2.70;1.97;;;;;;;;;;5050302;28;20237;-73
2021/10/05 13:26:44;;;;;;;5.47;2.20;;;;;;;;;;5053644;28;20542;-74
2021/10/05 13:29:11;;;;;;;6.17;2.00;;;;;;;;;;5053865;28;20220;-74
2021/10/05 13:31:37;;;;;;;3.57;1.57;;;;;;;;;;5051868;28;20208;-75
2021/10/05 13:34:05;;;;;;;4.03;2.10;;;;;;;;;;5052945;28;20213;-76
2021/10/05 13:36:31;;;;;;;7.07;2.00;;;;;;;;;;5056709;28;20882;-76
2021/10/05 13:38:58;;;;;;;5.73;1.70;;;;;;;;;;5055842;28;20211;-76
2021/10/05 13:41:24;;;;;;;2.33;1.90;;;;;;;;;;5055639;28;20282;-76
2021/10/05 13:43:51;;;;;;;4.10;1.80;;;;;;;;;;5055965;28;20639;-77
2021/10/05 13:46:17;;;;;;;6.07;2.40;;;;;;;;;;5054674;28;20207;-76
2021/10/05 13:48:43;;;;;;;4.90;2.47;;;;;;;;;;5053649;28;20645;-76
2021/10/05 13:51:11;;;;;;;4.70;2.73;;;;;;;;;;5055415;28;20302;-77
2021/10/05 13:53:37;;;;;;;5.67;3.33;;;;;;;;;;5055926;28;20222;-75
2021/10/05 13:56:04;;;;;;;3.77;2.37;;;;;;;;;;5055925;28;20214;-75
2021/10/05 13:58:31;;;;;;;5.47;2.80;;;;;;;;;;5056298;28;20262;-77
2021/10/05 14:00:57;;;;;;;9.67;3.40;;;;;;;;;;5053750;28;20238;-77
2021/10/05 14:03:24;;;;;;;6.00;2.90;;;;;;;;;;5056984;28;20215;-77
2021/10/05 14:05:51;;;;;;;5.83;3.33;;;;;;;;;;5057522;28;20241;-78
2021/10/05 14:08:18;;;;;;;6.53;2.83;;;;;;;;;;5053405;28;20271;-77
2021/10/05 14:10:45;;;;;;;5.47;2.97;;;;;;;;;;5055039;28;20213;-77
2021/10/05 14:13:11;;;;;;;5.77;3.30;;;;;;;;;;5055153;28;20242;-75
2021/10/05 14:15:38;;;;;;;5.63;3.60;;;;;;;;;;5056279;28;20210;-75
2021/10/05 14:18:06;;;;;;;4.40;3.10;;;;;;;;;;5056728;28;20260;-77
2021/10/05 14:20:33;;;;;;;5.33;3.17;;;;;;;;;;5055975;28;20311;-77
2021/10/05 14:22:59;;;;;;;8.73;3.40;;;;;;;;;;5056321;28;20226;-77
2021/10/05 14:25:27;;;;;;;6.73;3.40;;;;;;;;;;5057261;28;20280;-77
2021/10/05 14:27:54;;;;;;;7.33;3.10;;;;;;;;;;5054029;28;20222;-75
2021/10/05 14:30:20;;;;;;;3.40;2.47;;;;;;;;;;5057299;28;20260;-74
2021/10/05 14:32:46;;;;;;;6.37;3.20;;;;;;;;;;5056301;28;20214;-75
2021/10/05 14:35:13;;;;;;;5.90;3.03;;;;;;;;;;5053229;28;20249;-75
2021/10/05 14:37:40;;;;;;;6.20;2.73;;;;;;;;;;5054897;28;20639;-75
2021/10/05 14:40:08;;;;;;;6.87;2.83;;;;;;;;;;5054535;28;20789;-75
2021/10/05 14:42:36;;;;;;;3.63;1.93;;;;;;;;;;5055300;28;21129;-75
2021/10/05 14:45:03;;;;;;;4.67;2.33;;;;;;;;;;5055168;28;20264;-74
2021/10/05 14:47:30;;;;;;;5.07;2.30;;;;;;;;;;5053876;28;20230;-75